KCXO/CXO METAR and TAF weather

Enter ICAO airport designator
Station Type Date Time Source
KCXO METAR 2020/09/27 16:53 UTC NOAA

KCXO 271653Z 17014KT 10SM SCT039 31/22 A2985 RMK AO2 SLP104 T03110217


Station Type Date Time Source
KCXO Decoded METAR 2020/09/27 16:53 UTC NOAA

LONE STAR EXECUTIVE AIRPORT, TX, United States (KCXO) 30-21N 95-25W 75M
Sep 27, 2020 - 12:53 PM EDT / 2020.09.27 1653 UTC
Wind: from the S (170 degrees) at 16 MPH (14 KT):0
Visibility: 10 mile(s):0
Sky conditions: partly cloudy
Temperature: 88.0 F (31.1 C)
Heat index: 93.7 F (34.3 C):1
Dew Point: 71.1 F (21.7 C)
Relative Humidity: 57%
Pressure (altimeter): 29.85 in. Hg (1010 hPa)
ob: KCXO 271653Z 17014KT 10SM SCT039 31/22 A2985 RMK AO2 SLP104 T03110217
cycle: 17

Station Type Date Time Source
KCXO TAF 2020/09/27 18:27 UTC NOAA

TAF KCXO 271720Z 2718/2818 18014KT P6SM SCT030
FM280200 16010KT P6SM SCT025
FM280600 17008KT 6SM BR FEW008 BKN015 BKN025
FM280900 27008KT 4SM BR VCSH FEW008 BKN015
FM281200 35015G25KT P6SM VCSH BKN015 BKN030
FM281700 35015G25KT P6SM FEW030 BKN050 BKN070

Example: see airport list